createdAt,value
2022-12-09T00:00:07.907Z,99315.16
2022-12-09T00:02:35.369Z,99315.63
2022-12-09T00:05:02.495Z,99311.78
2022-12-09T00:07:29.629Z,99319.16
2022-12-09T00:09:56.562Z,99316.91
2022-12-09T00:12:23.698Z,99322.03
2022-12-09T00:14:50.469Z,99321.91
2022-12-09T00:17:20.070Z,99316.09
2022-12-09T00:19:47.599Z,99324.50
2022-12-09T00:22:33.267Z,99310.44
2022-12-09T00:24:59.966Z,99311.69
2022-12-09T00:27:26.756Z,99316.31
2022-12-09T00:29:53.711Z,99312.97
2022-12-09T00:32:20.891Z,99299.53
2022-12-09T00:34:49.644Z,99299.03
2022-12-09T00:37:16.392Z,99309.00
2022-12-09T00:39:43.121Z,99300.97
2022-12-09T00:42:10.785Z,99295.34
2022-12-09T00:44:38.929Z,99290.72
2022-12-09T00:47:05.744Z,99291.00
2022-12-09T00:49:32.640Z,99283.25
2022-12-09T00:51:59.891Z,99283.09
2022-12-09T00:54:27.212Z,99282.88
2022-12-09T00:56:53.923Z,99293.75
2022-12-09T00:59:20.973Z,99293.72
2022-12-09T01:01:48.803Z,99297.75
2022-12-09T01:04:17.417Z,99290.75
2022-12-09T01:06:44.275Z,99291.00
2022-12-09T01:09:11.075Z,99297.75
2022-12-09T01:11:38.130Z,99297.13
2022-12-09T01:14:06.289Z,99288.22
2022-12-09T01:16:35.060Z,99293.06
2022-12-09T01:19:05.398Z,99289.22
2022-12-09T01:21:33.248Z,99297.84
2022-12-09T01:24:00.281Z,99292.72
2022-12-09T01:26:27.530Z,99302.34
2022-12-09T01:29:01.396Z,99295.84
2022-12-09T01:31:28.209Z,99293.56
2022-12-09T01:33:56.876Z,99275.75
2022-12-09T01:36:33.274Z,99267.25
2022-12-09T01:39:00.933Z,99272.06
2022-12-09T01:41:28.745Z,99278.16
2022-12-09T01:44:14.249Z,99278.72
2022-12-09T01:46:41.940Z,99275.63
2022-12-09T01:49:12.632Z,99277.59
2022-12-09T01:51:39.678Z,99275.19
2022-12-09T01:54:06.897Z,99260.38
2022-12-09T01:56:36.005Z,99263.75
2022-12-09T01:59:15.136Z,99264.25
2022-12-09T02:01:44.425Z,99262.78
2022-12-09T02:04:11.705Z,99259.38
2022-12-09T02:06:39.267Z,99257.63
2022-12-09T02:09:09.569Z,99262.09
2022-12-09T02:11:40.108Z,99263.22
2022-12-09T02:14:30.200Z,99251.84
2022-12-09T02:17:24.357Z,99262.19
2022-12-09T02:20:19.309Z,99260.81
2022-12-09T02:22:53.320Z,99246.16
2022-12-09T02:25:29.078Z,99255.78
2022-12-09T02:28:14.490Z,99251.25
2022-12-09T02:31:08.702Z,99248.03
2022-12-09T02:34:11.051Z,99257.94
2022-12-09T02:37:02.388Z,99256.00
2022-12-09T02:39:43.921Z,99259.31
2022-12-09T02:42:16.511Z,99259.78
2022-12-09T02:44:47.681Z,99255.06
2022-12-09T02:47:18.425Z,99248.78
2022-12-09T02:49:48.661Z,99248.44
2022-12-09T02:52:18.413Z,99257.59
2022-12-09T02:54:46.729Z,99254.91
2022-12-09T02:57:26.288Z,99252.81
2022-12-09T02:59:53.883Z,99248.56
2022-12-09T03:02:33.537Z,99256.44
2022-12-09T03:05:18.467Z,99261.41
2022-12-09T03:08:00.674Z,99255.13
2022-12-09T03:10:39.326Z,99251.13
2022-12-09T03:13:14.135Z,99241.66
2022-12-09T03:15:50.009Z,99243.28
2022-12-09T03:18:20.298Z,99250.16
2022-12-09T03:20:49.248Z,99266.19
2022-12-09T03:23:19.446Z,99272.59
2022-12-09T03:25:52.317Z,99265.50
2022-12-09T03:28:26.795Z,99265.16
2022-12-09T03:30:55.054Z,99260.47
2022-12-09T03:33:23.511Z,99252.19
2022-12-09T03:35:58.246Z,99256.81
2022-12-09T03:38:31.064Z,99242.81
2022-12-09T03:41:30.721Z,99243.44
2022-12-09T03:44:35.870Z,99238.72
2022-12-09T03:47:07.101Z,99230.31
2022-12-09T03:49:35.521Z,99228.53
2022-12-09T03:52:11.309Z,99231.97
2022-12-09T03:54:46.117Z,99224.06
2022-12-09T03:57:19.076Z,99224.69
2022-12-09T03:59:58.224Z,99219.22
2022-12-09T04:02:25.692Z,99220.19
2022-12-09T04:04:52.726Z,99201.94
2022-12-09T04:07:20.031Z,99207.78
2022-12-09T04:09:47.270Z,99191.13
2022-12-09T04:12:14.088Z,99190.81
2022-12-09T04:14:40.944Z,99203.88
2022-12-09T04:17:07.817Z,99198.13
2022-12-09T04:19:35.262Z,99196.34
2022-12-09T04:22:03.062Z,99193.16
2022-12-09T04:24:30.479Z,99199.28
2022-12-09T04:26:57.413Z,99202.66
2022-12-09T04:29:24.404Z,99197.38
2022-12-09T04:31:51.266Z,99203.69
2022-12-09T04:34:18.122Z,99204.13
2022-12-09T04:36:45.021Z,99197.03
2022-12-09T04:39:11.945Z,99196.88
2022-12-09T04:41:38.948Z,99188.34
2022-12-09T04:44:06.536Z,99197.69
2022-12-09T04:46:34.117Z,99197.03
2022-12-09T04:49:01.229Z,99194.47
2022-12-09T04:51:29.614Z,99190.91
2022-12-09T04:53:59.242Z,99185.97
2022-12-09T04:56:26.615Z,99195.13
2022-12-09T04:58:53.662Z,99197.94
2022-12-09T05:01:29.896Z,99197.56
2022-12-09T05:03:57.950Z,99193.69
2022-12-09T05:06:25.854Z,99197.50
2022-12-09T05:08:53.405Z,99186.25
2022-12-09T05:11:21.695Z,99194.94
2022-12-09T05:13:48.604Z,99203.44
2022-12-09T05:16:18.235Z,99189.16
2022-12-09T05:18:46.596Z,99192.09
2022-12-09T05:21:16.802Z,99182.16
2022-12-09T05:23:44.451Z,99182.78
2022-12-09T05:26:15.209Z,99175.53
2022-12-09T05:28:42.932Z,99179.16
2022-12-09T05:31:18.347Z,99167.09
2022-12-09T05:33:46.239Z,99177.63
2022-12-09T05:36:15.250Z,99171.06
2022-12-09T05:38:42.365Z,99173.13
2022-12-09T05:41:09.335Z,99165.50
2022-12-09T05:43:37.267Z,99166.19
2022-12-09T05:46:05.699Z,99169.56
2022-12-09T05:48:33.465Z,99169.69
2022-12-09T05:51:07.985Z,99162.84
2022-12-09T05:53:35.317Z,99151.88
2022-12-09T05:56:03.089Z,99154.44
2022-12-09T05:58:30.234Z,99143.53
2022-12-09T06:01:04.248Z,99138.06
2022-12-09T06:03:31.427Z,99126.00
2022-12-09T06:06:08.480Z,99113.50
2022-12-09T06:08:36.282Z,99125.34
2022-12-09T06:11:03.485Z,99106.56
2022-12-09T06:13:30.952Z,99099.66
2022-12-09T06:16:04.405Z,99103.47
2022-12-09T06:18:31.574Z,99111.00
2022-12-09T06:20:59.079Z,99094.97
2022-12-09T06:23:26.372Z,99090.38
2022-12-09T06:25:53.109Z,99086.75
2022-12-09T06:28:20.296Z,99085.06
2022-12-09T06:30:47.300Z,99082.50
2022-12-09T06:33:37.360Z,99086.44
2022-12-09T06:36:05.414Z,99070.69
2022-12-09T06:38:32.937Z,99079.56
2022-12-09T06:41:00.025Z,99075.81
2022-12-09T06:43:27.072Z,99084.63
2022-12-09T06:45:54.192Z,99083.22
2022-12-09T06:48:20.990Z,99079.19
2022-12-09T06:50:50.381Z,99074.06
2022-12-09T06:53:17.202Z,99081.44
2022-12-09T06:55:44.902Z,99084.88
2022-12-09T06:58:12.271Z,99070.69
2022-12-09T07:00:40.519Z,99081.84
2022-12-09T07:03:07.649Z,99088.22
2022-12-09T07:05:35.002Z,99085.59
2022-12-09T07:08:02.010Z,99093.19
2022-12-09T07:10:29.176Z,99106.03
2022-12-09T07:12:56.119Z,99107.13
2022-12-09T07:15:23.527Z,99108.25
2022-12-09T07:17:53.467Z,99101.97
2022-12-09T07:20:20.875Z,99103.56
2022-12-09T07:22:47.839Z,99101.34
2022-12-09T07:25:15.169Z,99085.75
2022-12-09T07:27:42.384Z,99090.53
2022-12-09T07:30:09.687Z,99081.59
2022-12-09T07:32:36.703Z,99077.75
2022-12-09T07:35:04.071Z,99068.56
2022-12-09T07:37:31.110Z,99074.88
2022-12-09T07:39:57.844Z,99068.31
2022-12-09T07:42:24.618Z,99066.69
2022-12-09T07:44:54.147Z,99069.44
2022-12-09T07:47:21.371Z,99068.84
2022-12-09T07:49:48.473Z,99060.13
2022-12-09T07:52:16.953Z,99065.66
2022-12-09T07:54:44.051Z,99063.09
2022-12-09T07:57:11.323Z,99063.31
2022-12-09T07:59:38.536Z,99063.31
2022-12-09T08:02:06.713Z,99052.66
2022-12-09T08:04:35.305Z,99048.56
2022-12-09T08:07:02.691Z,99042.16
2022-12-09T08:09:33.053Z,99036.66
2022-12-09T08:12:00.267Z,99034.56
2022-12-09T08:14:27.726Z,99047.47
2022-12-09T08:16:54.836Z,99036.84
2022-12-09T08:19:22.025Z,99025.84
2022-12-09T08:21:54.321Z,99023.63
2022-12-09T08:24:21.999Z,99023.41
2022-12-09T08:26:51.375Z,99008.22
2022-12-09T08:29:18.417Z,99010.78
2022-12-09T08:31:46.536Z,99005.75
2022-12-09T08:34:15.345Z,98997.56
2022-12-09T08:36:45.824Z,98997.84
2022-12-09T08:39:14.015Z,99000.63
2022-12-09T08:41:42.621Z,99004.19
2022-12-09T08:44:12.912Z,99016.06
2022-12-09T08:46:41.839Z,99002.09
2022-12-09T08:49:09.951Z,99011.69
2022-12-09T08:51:37.483Z,99010.25
2022-12-09T08:54:06.055Z,99028.59
2022-12-09T08:56:34.440Z,99030.00
2022-12-09T08:59:02.101Z,99034.81
2022-12-09T09:01:34.330Z,99035.69
2022-12-09T09:04:03.996Z,99032.06
2022-12-09T09:06:31.346Z,99028.16
2022-12-09T09:09:02.009Z,99030.94
2022-12-09T09:11:29.802Z,99030.38
2022-12-09T09:13:57.766Z,99018.59
2022-12-09T09:16:28.299Z,99019.56
2022-12-09T09:19:01.296Z,99022.94
2022-12-09T09:21:28.503Z,99011.03
2022-12-09T09:23:55.591Z,99008.13
2022-12-09T09:26:26.185Z,99009.94
2022-12-09T09:28:53.811Z,99007.28
2022-12-09T09:31:23.234Z,98998.22
2022-12-09T09:33:50.964Z,98993.09
2022-12-09T09:36:21.010Z,98989.59
2022-12-09T09:38:49.286Z,98988.88
2022-12-09T09:41:25.641Z,98982.25
2022-12-09T09:43:54.533Z,98980.66
2022-12-09T09:46:43.245Z,98978.03
2022-12-09T09:49:21.280Z,98965.53
2022-12-09T09:51:48.630Z,98955.34
2022-12-09T09:54:16.703Z,98951.75
2022-12-09T09:56:47.934Z,98938.72
2022-12-09T09:59:27.140Z,98927.41
2022-12-09T10:02:12.680Z,98921.66
2022-12-09T10:05:09.197Z,98906.06
2022-12-09T10:07:51.694Z,98897.13
2022-12-09T10:10:51.652Z,98897.59
2022-12-09T10:13:30.800Z,98888.16
2022-12-09T10:16:17.884Z,98877.78
2022-12-09T10:18:54.289Z,98885.44
2022-12-09T10:21:22.489Z,98886.56
2022-12-09T10:23:50.884Z,98875.06
2022-12-09T10:26:28.168Z,98882.97
2022-12-09T10:29:05.197Z,98875.31
2022-12-09T10:31:32.920Z,98881.88
2022-12-09T10:34:01.130Z,98880.56
2022-12-09T10:36:35.777Z,98866.84
2022-12-09T10:39:05.322Z,98871.88
2022-12-09T10:42:15.331Z,98876.09
2022-12-09T10:44:43.708Z,98851.81
2022-12-09T10:47:37.322Z,98869.75
2022-12-09T10:50:06.321Z,98852.44
2022-12-09T10:52:44.465Z,98843.50
2022-12-09T10:55:31.400Z,98841.88
2022-12-09T10:58:14.390Z,98844.28
2022-12-09T11:00:41.315Z,98842.63
2022-12-09T11:03:27.041Z,98827.28
2022-12-09T11:06:00.144Z,98833.84
2022-12-09T11:08:27.613Z,98837.84
2022-12-09T11:10:55.306Z,98837.81
2022-12-09T11:13:28.959Z,98833.66
2022-12-09T11:16:01.617Z,98831.28
2022-12-09T11:18:38.087Z,98827.88
2022-12-09T11:21:07.978Z,98814.63
2022-12-09T11:23:36.018Z,98818.97
2022-12-09T11:26:06.893Z,98808.50
2022-12-09T11:28:36.878Z,98800.16
2022-12-09T11:31:32.635Z,98787.84
2022-12-09T11:34:04.335Z,98784.31
2022-12-09T11:36:42.210Z,98771.25
2022-12-09T11:39:33.927Z,98759.78
2022-12-09T11:42:17.128Z,98759.66
2022-12-09T11:45:17.558Z,98761.34
2022-12-09T11:50:36.496Z,98756.31
2022-12-09T11:53:19.797Z,98748.78
2022-12-09T11:56:05.540Z,98752.59
2022-12-09T11:59:09.282Z,98756.75
2022-12-09T12:01:52.356Z,98758.78
2022-12-09T12:04:50.344Z,98764.66
2022-12-09T12:07:26.088Z,98754.78
2022-12-09T12:09:58.252Z,98751.56
2022-12-09T12:12:38.843Z,98755.94
2022-12-09T12:15:22.090Z,98753.91
2022-12-09T12:17:54.847Z,98756.75
2022-12-09T12:20:28.436Z,98745.53
2022-12-09T12:23:19.110Z,98731.13
2022-12-09T12:26:06.485Z,98752.53
2022-12-09T12:28:50.483Z,98743.75
2022-12-09T12:31:41.151Z,98736.63
2022-12-09T12:34:39.049Z,98728.47
2022-12-09T12:37:36.894Z,98730.00
2022-12-09T12:40:27.153Z,98727.03
2022-12-09T12:43:35.440Z,98719.28
2022-12-09T12:46:19.893Z,98721.03
2022-12-09T12:49:14.412Z,98712.13
2022-12-09T12:52:03.158Z,98715.59
2022-12-09T12:54:55.747Z,98713.22
2022-12-09T12:57:37.484Z,98698.19
2022-12-09T13:00:17.844Z,98700.56
2022-12-09T13:03:17.128Z,98699.41
2022-12-09T13:05:47.884Z,98697.47
2022-12-09T13:08:21.840Z,98699.34
2022-12-09T13:10:53.082Z,98692.16
2022-12-09T13:13:28.007Z,98689.09
2022-12-09T13:16:01.679Z,98696.66
2022-12-09T13:18:36.721Z,98679.94
2022-12-09T13:21:05.571Z,98677.25
2022-12-09T13:23:55.487Z,98677.19
2022-12-09T13:26:57.688Z,98678.69
2022-12-09T13:29:33.460Z,98673.06
2022-12-09T13:32:12.497Z,98665.16
2022-12-09T13:35:12.004Z,98666.34
2022-12-09T13:37:44.600Z,98648.66
2022-12-09T13:40:34.871Z,98653.38
2022-12-09T13:43:07.305Z,98645.03
2022-12-09T13:45:46.087Z,98644.19
2022-12-09T13:48:17.043Z,98643.34
2022-12-09T13:50:51.623Z,98635.88
2022-12-09T13:53:21.158Z,98642.19
2022-12-09T13:56:05.308Z,98633.47
2022-12-09T13:58:37.932Z,98625.97
2022-12-09T14:01:16.800Z,98623.97
2022-12-09T14:04:06.288Z,98618.81
2022-12-09T14:06:56.156Z,98621.56
2022-12-09T14:09:22.777Z,98610.72
2022-12-09T14:11:54.037Z,98618.44
2022-12-09T14:14:25.692Z,98613.31
2022-12-09T14:17:13.225Z,98617.72
2022-12-09T14:19:52.148Z,98605.81
2022-12-09T14:22:19.709Z,98610.44
2022-12-09T14:24:50.124Z,98602.88
2022-12-09T14:27:33.350Z,98600.69
2022-12-09T14:30:21.162Z,98599.00
2022-12-09T14:32:50.847Z,98597.03
2022-12-09T14:35:52.207Z,98587.91
2022-12-09T14:38:31.128Z,98590.69
2022-12-09T14:41:21.907Z,98587.78
2022-12-09T14:44:26.300Z,98585.22
2022-12-09T14:47:11.969Z,98575.44
2022-12-09T14:49:48.523Z,98574.41
2022-12-09T14:52:25.099Z,98575.34
2022-12-09T14:54:53.988Z,98570.78
2022-12-09T14:57:22.827Z,98580.56
2022-12-09T14:59:55.209Z,98574.94
2022-12-09T15:02:31.794Z,98578.03
2022-12-09T15:05:03.122Z,98578.66
2022-12-09T15:07:32.730Z,98567.16
2022-12-09T15:10:33.952Z,98573.66
2022-12-09T15:13:01.601Z,98581.84
2022-12-09T15:15:38.331Z,98559.34
2022-12-09T15:18:17.632Z,98567.84
2022-12-09T15:20:51.051Z,98560.75
2022-12-09T15:23:38.048Z,98551.31
2022-12-09T15:26:19.557Z,98541.75
2022-12-09T15:28:49.070Z,98529.28
2022-12-09T15:31:27.170Z,98536.09
2022-12-09T15:33:57.453Z,98526.88
2022-12-09T15:36:39.455Z,98518.97
2022-12-09T15:39:19.107Z,98523.53
2022-12-09T15:42:06.440Z,98523.75
2022-12-09T15:45:01.240Z,98523.31
2022-12-09T15:48:03.160Z,98519.94
2022-12-09T15:50:54.800Z,98516.69
2022-12-09T15:53:31.501Z,98505.94
2022-12-09T15:56:03.823Z,98501.22
2022-12-09T15:58:39.940Z,98491.09
2022-12-09T16:01:06.890Z,98489.38
2022-12-09T16:03:35.582Z,98474.97
2022-12-09T16:06:06.851Z,98478.72
2022-12-09T16:08:40.318Z,98471.56
2022-12-09T16:11:07.275Z,98483.41
2022-12-09T16:13:34.483Z,98479.53
2022-12-09T16:16:22.094Z,98487.19
2022-12-09T16:18:50.427Z,98473.59
2022-12-09T16:21:27.795Z,98472.25
2022-12-09T16:23:57.246Z,98470.84
2022-12-09T16:26:44.096Z,98469.66
2022-12-09T16:29:31.419Z,98466.78
2022-12-09T16:32:25.925Z,98469.00
2022-12-09T16:34:58.875Z,98469.78
2022-12-09T16:37:40.384Z,98458.59
2022-12-09T16:40:22.449Z,98452.38
2022-12-09T16:42:50.790Z,98452.28
2022-12-09T16:45:36.939Z,98447.50
2022-12-09T16:48:04.986Z,98439.19
2022-12-09T16:50:35.686Z,98444.75
2022-12-09T16:53:15.615Z,98452.84
2022-12-09T16:55:54.805Z,98464.06
2022-12-09T16:58:22.095Z,98457.59
2022-12-09T17:00:49.689Z,98455.19
2022-12-09T17:03:33.195Z,98440.19
2022-12-09T17:06:00.080Z,98442.63
2022-12-09T17:08:26.915Z,98442.44
2022-12-09T17:10:53.770Z,98417.81
2022-12-09T17:13:20.526Z,98409.38
2022-12-09T17:15:47.259Z,98415.72
2022-12-09T17:18:14.112Z,98426.75
2022-12-09T17:20:40.854Z,98432.34
2022-12-09T17:23:07.614Z,98444.53
2022-12-09T17:25:34.468Z,98418.09
2022-12-09T17:28:03.487Z,98409.38
2022-12-09T17:30:30.680Z,98419.25
2022-12-09T17:32:59.684Z,98407.59
2022-12-09T17:35:27.210Z,98400.88
2022-12-09T17:37:53.930Z,98391.13
2022-12-09T17:40:20.606Z,98382.44
2022-12-09T17:42:47.281Z,98393.75
2022-12-09T17:45:14.004Z,98391.38
2022-12-09T17:47:40.853Z,98403.56
2022-12-09T17:50:08.275Z,98401.75
2022-12-09T17:52:35.576Z,98399.38
2022-12-09T17:55:02.297Z,98399.97
2022-12-09T17:57:29.351Z,98409.66
2022-12-09T17:59:56.199Z,98409.66
2022-12-09T18:02:23.056Z,98415.97
2022-12-09T18:04:49.881Z,98410.44
2022-12-09T18:07:18.108Z,98410.22
2022-12-09T18:09:46.600Z,98410.63
2022-12-09T18:12:16.614Z,98397.19
2022-12-09T18:14:43.334Z,98396.19
2022-12-09T18:17:10.099Z,98391.81
2022-12-09T18:19:37.046Z,98391.81
2022-12-09T18:22:04.280Z,98389.50
2022-12-09T18:24:31.040Z,98385.78
2022-12-09T18:26:58.311Z,98384.34
2022-12-09T18:29:25.490Z,98385.94
2022-12-09T18:31:56.991Z,98376.47
2022-12-09T18:34:25.252Z,98385.88
2022-12-09T18:36:52.469Z,98379.78
2022-12-09T18:39:19.871Z,98381.78
2022-12-09T18:41:47.182Z,98375.25
2022-12-09T18:44:16.007Z,98378.25
2022-12-09T18:46:49.043Z,98368.59
2022-12-09T18:49:21.793Z,98370.09
2022-12-09T18:51:50.143Z,98364.28
2022-12-09T18:54:27.492Z,98365.81
2022-12-09T18:56:55.403Z,98362.69
2022-12-09T18:59:25.059Z,98349.66
2022-12-09T19:01:52.156Z,98363.66
2022-12-09T19:04:24.801Z,98363.84
2022-12-09T19:06:54.021Z,98360.72
2022-12-09T19:09:23.456Z,98366.44
2022-12-09T19:11:51.720Z,98359.72
2022-12-09T19:14:22.199Z,98366.03
2022-12-09T19:16:49.860Z,98365.03
2022-12-09T19:19:19.666Z,98369.56
2022-12-09T19:21:47.085Z,98377.09
2022-12-09T19:24:27.103Z,98366.81
2022-12-09T19:26:56.548Z,98367.22
2022-12-09T19:29:28.089Z,98363.16
2022-12-09T19:31:57.333Z,98373.41
2022-12-09T19:34:27.252Z,98373.03
2022-12-09T19:36:56.228Z,98375.72
2022-12-09T19:39:25.348Z,98367.44
2022-12-09T19:41:52.892Z,98363.16
2022-12-09T19:44:37.397Z,98367.66
2022-12-09T19:47:07.341Z,98378.28
2022-12-09T19:49:34.702Z,98370.00
2022-12-09T19:52:01.456Z,98374.94
2022-12-09T19:54:29.798Z,98367.66
2022-12-09T19:56:57.133Z,98373.75
2022-12-09T19:59:23.791Z,98369.47
2022-12-09T20:01:50.706Z,98372.97
2022-12-09T20:04:47.417Z,98380.13
2022-12-09T20:07:08.236Z,98378.16
2022-12-09T20:09:36.226Z,98380.47
2022-12-09T20:12:02.950Z,98397.09
2022-12-09T20:14:29.722Z,98397.09
2022-12-09T20:16:56.410Z,98397.69
2022-12-09T20:19:23.860Z,98407.72
2022-12-09T20:21:50.669Z,98400.66
2022-12-09T20:24:17.447Z,98395.94
2022-12-09T20:26:44.944Z,98395.16
2022-12-09T20:29:11.962Z,98387.88
2022-12-09T20:31:39.792Z,98385.16
2022-12-09T20:34:11.332Z,98388.25
2022-12-09T20:36:39.760Z,98399.09
2022-12-09T20:39:12.610Z,98400.31
2022-12-09T20:41:39.839Z,98397.56
2022-12-09T20:44:06.667Z,98409.84
2022-12-09T20:46:33.878Z,98399.75
2022-12-09T20:49:01.241Z,98395.84
2022-12-09T20:51:36.862Z,98395.22
2022-12-09T20:54:05.313Z,98401.97
2022-12-09T20:56:32.492Z,98405.16
2022-12-09T20:58:59.949Z,98404.00
2022-12-09T21:01:29.991Z,98407.34
2022-12-09T21:03:58.544Z,98402.44
2022-12-09T21:06:29.414Z,98394.53
2022-12-09T21:08:57.481Z,98398.31
2022-12-09T21:11:25.683Z,98401.84
2022-12-09T21:13:57.863Z,98420.63
2022-12-09T21:16:27.416Z,98422.25
2022-12-09T21:18:57.574Z,98429.78
2022-12-09T21:21:26.160Z,98417.53
2022-12-09T21:23:55.365Z,98424.63
2022-12-09T21:26:24.265Z,98431.34
2022-12-09T21:28:52.055Z,98420.72
2022-12-09T21:31:24.585Z,98424.03
2022-12-09T21:33:53.099Z,98420.31
2022-12-09T21:36:23.472Z,98418.31
2022-12-09T21:38:50.933Z,98432.34
2022-12-09T21:41:20.584Z,98440.47
2022-12-09T21:43:47.590Z,98436.28
2022-12-09T21:46:20.885Z,98434.13
2022-12-09T21:48:52.415Z,98438.84
2022-12-09T21:51:21.007Z,98442.84
2022-12-09T21:53:48.828Z,98443.78
2022-12-09T21:56:20.648Z,98446.34
2022-12-09T21:58:49.520Z,98447.94
2022-12-09T22:01:28.016Z,98444.00
2022-12-09T22:03:55.910Z,98445.00
2022-12-09T22:06:23.000Z,98457.66
2022-12-09T22:08:49.797Z,98459.25
2022-12-09T22:11:23.341Z,98460.59
2022-12-09T22:13:50.427Z,98465.38
2022-12-09T22:16:23.086Z,98459.06
2022-12-09T22:18:50.530Z,98449.16
2022-12-09T22:21:28.115Z,98464.22
2022-12-09T22:23:57.421Z,98470.34
2022-12-09T22:26:24.980Z,98460.03
2022-12-09T22:28:52.824Z,98469.72
2022-12-09T22:31:25.900Z,98467.16
2022-12-09T22:33:54.521Z,98461.44
2022-12-09T22:36:21.676Z,98472.09
2022-12-09T22:38:49.312Z,98475.88
2022-12-09T22:41:22.532Z,98476.88
2022-12-09T22:43:50.530Z,98475.09
2022-12-09T22:46:20.138Z,98468.34
2022-12-09T22:48:47.195Z,98476.47
2022-12-09T22:51:16.710Z,98478.03
2022-12-09T22:53:43.948Z,98477.84
2022-12-09T22:56:12.395Z,98484.75
2022-12-09T22:58:40.129Z,98488.31
2022-12-09T23:01:15.415Z,98490.69
2022-12-09T23:03:42.755Z,98489.91
2022-12-09T23:06:10.135Z,98485.34
2022-12-09T23:08:38.830Z,98493.06
2022-12-09T23:11:08.177Z,98495.84
2022-12-09T23:13:41.252Z,98500.81
2022-12-09T23:16:11.795Z,98488.31
2022-12-09T23:18:39.515Z,98489.28
2022-12-09T23:21:08.657Z,98495.44
2022-12-09T23:23:35.489Z,98503.34
2022-12-09T23:26:07.526Z,98503.34
2022-12-09T23:28:38.874Z,98508.66
2022-12-09T23:31:10.117Z,98508.06
2022-12-09T23:33:38.809Z,98505.53
2022-12-09T23:36:15.319Z,98520.66
2022-12-09T23:38:42.648Z,98526.19
2022-12-09T23:41:11.639Z,98521.47
2022-12-09T23:43:39.499Z,98509.38
2022-12-09T23:46:15.448Z,98516.25
2022-12-09T23:48:43.968Z,98508.50
2022-12-09T23:51:22.071Z,98509.31
2022-12-09T23:53:51.231Z,98511.50
2022-12-09T23:56:20.327Z,98515.75
2022-12-09T23:58:47.708Z,98519.28
